createdAt,value
2022-12-25T00:00:06.232Z,21.50
2022-12-25T00:02:33.242Z,21.50
2022-12-25T00:05:00.141Z,21.50
2022-12-25T00:07:27.598Z,21.50
2022-12-25T00:09:54.847Z,21.50
2022-12-25T00:12:22.497Z,21.50
2022-12-25T00:14:49.241Z,21.50
2022-12-25T00:17:16.711Z,21.50
2022-12-25T00:19:43.459Z,21.50
2022-12-25T00:22:10.255Z,21.50
2022-12-25T00:24:37.155Z,21.50
2022-12-25T00:27:04.518Z,21.60
2022-12-25T00:29:31.302Z,21.50
2022-12-25T00:31:58.186Z,21.60
2022-12-25T00:34:27.226Z,21.60
2022-12-25T00:36:54.046Z,21.50
2022-12-25T00:39:20.806Z,21.60
2022-12-25T00:42:06.232Z,21.60
2022-12-25T00:44:33.046Z,21.60
2022-12-25T00:47:03.453Z,21.60
2022-12-25T00:49:30.337Z,21.60
2022-12-25T00:51:57.136Z,21.60
2022-12-25T00:54:23.939Z,21.60
2022-12-25T00:56:50.691Z,21.60
2022-12-25T00:59:17.483Z,21.60
2022-12-25T01:01:44.976Z,21.60
2022-12-25T01:04:12.939Z,21.60
2022-12-25T01:06:40.327Z,21.60
2022-12-25T01:09:25.734Z,21.60
2022-12-25T01:11:52.752Z,21.60
2022-12-25T01:14:19.555Z,21.60
2022-12-25T01:16:46.437Z,21.60
2022-12-25T01:19:13.754Z,21.60
2022-12-25T01:21:41.074Z,21.70
2022-12-25T01:24:10.693Z,21.70
2022-12-25T01:26:37.950Z,21.70
2022-12-25T01:29:04.791Z,21.60
2022-12-25T01:31:31.656Z,21.70
2022-12-25T01:33:58.490Z,21.70
2022-12-25T01:36:26.441Z,21.60
2022-12-25T01:38:54.597Z,21.70
2022-12-25T01:41:23.594Z,21.70
2022-12-25T01:44:37.464Z,21.60
2022-12-25T01:47:05.736Z,21.70
2022-12-25T01:49:36.318Z,21.70
2022-12-25T01:52:10.744Z,21.70
2022-12-25T01:54:55.209Z,21.70
2022-12-25T01:57:34.589Z,21.70
2022-12-25T02:00:02.345Z,21.70
2022-12-25T02:02:29.606Z,21.70
2022-12-25T02:05:03.177Z,21.70
2022-12-25T02:07:32.843Z,21.70
2022-12-25T02:09:59.645Z,21.70
2022-12-25T02:12:30.052Z,21.70
2022-12-25T02:15:05.797Z,21.70
2022-12-25T02:18:02.659Z,21.70
2022-12-25T02:20:35.411Z,21.70
2022-12-25T02:23:18.461Z,21.70
2022-12-25T02:26:10.774Z,21.70
2022-12-25T02:28:45.952Z,21.70
2022-12-25T02:31:25.328Z,21.70
2022-12-25T02:34:18.963Z,21.70
2022-12-25T02:36:57.569Z,21.60
2022-12-25T02:39:48.950Z,21.70
2022-12-25T02:42:46.702Z,21.60
2022-12-25T02:45:34.807Z,21.60
2022-12-25T02:48:21.161Z,21.70
2022-12-25T02:51:07.188Z,21.60
2022-12-25T02:53:54.646Z,21.60
2022-12-25T02:56:41.721Z,21.60
2022-12-25T02:59:27.228Z,21.60
2022-12-25T03:02:13.306Z,21.60
2022-12-25T03:05:01.085Z,21.60
2022-12-25T03:07:30.994Z,21.60
2022-12-25T03:10:22.124Z,21.70
2022-12-25T03:13:05.252Z,21.70
2022-12-25T03:15:53.087Z,21.60
2022-12-25T03:18:22.331Z,21.60
2022-12-25T03:21:07.682Z,21.60
2022-12-25T03:23:54.137Z,21.70
2022-12-25T03:26:39.676Z,21.70
2022-12-25T03:29:06.516Z,21.60
2022-12-25T03:31:58.531Z,21.60
2022-12-25T03:35:22.707Z,21.70
2022-12-25T03:38:26.933Z,21.60
2022-12-25T03:41:31.289Z,21.70
2022-12-25T03:44:28.845Z,21.70
2022-12-25T03:47:28.327Z,21.70
2022-12-25T03:50:23.339Z,21.70
2022-12-25T03:53:11.430Z,21.70
2022-12-25T03:55:57.967Z,21.70
2022-12-25T03:58:45.381Z,21.60
2022-12-25T04:01:31.381Z,21.70
2022-12-25T04:04:17.261Z,21.60
2022-12-25T04:07:02.739Z,21.60
2022-12-25T04:09:48.394Z,21.70
2022-12-25T04:12:33.914Z,21.70
2022-12-25T04:15:22.349Z,21.70
2022-12-25T04:18:11.548Z,21.70
2022-12-25T04:20:57.091Z,21.60
2022-12-25T04:23:42.525Z,21.70
2022-12-25T04:26:28.173Z,21.70
2022-12-25T04:29:13.660Z,21.60
2022-12-25T04:31:59.148Z,21.60
2022-12-25T04:34:44.654Z,21.70
2022-12-25T04:37:11.422Z,21.60
2022-12-25T04:39:38.186Z,21.60
2022-12-25T04:42:06.262Z,21.70
2022-12-25T04:44:33.481Z,21.70
2022-12-25T04:47:01.137Z,21.60
2022-12-25T04:49:30.359Z,21.70
2022-12-25T04:51:57.144Z,21.60
2022-12-25T04:54:24.361Z,21.70
2022-12-25T04:56:51.616Z,21.60
2022-12-25T04:59:18.357Z,21.60
2022-12-25T05:01:45.213Z,21.60
2022-12-25T05:04:11.996Z,21.60
2022-12-25T05:06:39.043Z,21.60
2022-12-25T05:09:06.261Z,21.60
2022-12-25T05:11:33.092Z,21.60
2022-12-25T05:13:59.838Z,21.60
2022-12-25T05:16:26.896Z,21.60
2022-12-25T05:18:56.443Z,21.60
2022-12-25T05:21:23.874Z,21.60
2022-12-25T05:23:51.902Z,21.60
2022-12-25T05:26:22.097Z,21.60
2022-12-25T05:28:49.337Z,21.60
2022-12-25T05:31:16.942Z,21.60
2022-12-25T05:33:44.499Z,21.60
2022-12-25T05:36:13.325Z,21.60
2022-12-25T05:38:42.795Z,21.60
2022-12-25T05:41:09.873Z,21.60
2022-12-25T05:43:37.161Z,21.60
2022-12-25T05:46:06.466Z,21.60
2022-12-25T05:48:35.620Z,21.60
2022-12-25T05:51:07.245Z,21.60
2022-12-25T05:53:34.800Z,21.70
2022-12-25T05:56:04.060Z,21.60
2022-12-25T05:58:33.025Z,21.60
2022-12-25T06:00:59.892Z,21.60
2022-12-25T06:03:27.429Z,21.60
2022-12-25T06:05:54.854Z,21.60
2022-12-25T06:08:22.305Z,21.50
2022-12-25T06:10:49.067Z,21.40
2022-12-25T06:13:16.289Z,21.40
2022-12-25T06:15:43.589Z,21.40
2022-12-25T06:18:10.881Z,21.40
2022-12-25T06:20:41.271Z,21.30
2022-12-25T06:23:08.596Z,21.30
2022-12-25T06:25:39.735Z,21.30
2022-12-25T06:28:10.915Z,21.20
2022-12-25T06:30:38.186Z,21.20
2022-12-25T06:33:04.965Z,21.20
2022-12-25T06:35:31.723Z,21.20
2022-12-25T06:37:59.050Z,21.20
2022-12-25T06:40:26.305Z,21.20
2022-12-25T06:42:53.210Z,21.20
2022-12-25T06:45:20.455Z,21.20
2022-12-25T06:47:47.240Z,21.20
2022-12-25T06:50:13.999Z,21.20
2022-12-25T06:52:40.770Z,21.20
2022-12-25T06:55:07.812Z,21.20
2022-12-25T06:57:35.029Z,21.20
2022-12-25T07:00:01.892Z,21.20
2022-12-25T07:02:29.453Z,21.20
2022-12-25T07:04:56.855Z,21.20
2022-12-25T07:07:23.727Z,21.20
2022-12-25T07:09:50.985Z,21.20
2022-12-25T07:12:21.095Z,21.20
2022-12-25T07:14:50.869Z,21.20
2022-12-25T07:17:18.624Z,21.10
2022-12-25T07:19:47.649Z,21.10
2022-12-25T07:22:15.731Z,21.10
2022-12-25T07:24:42.738Z,21.10
2022-12-25T07:27:09.523Z,21.10
2022-12-25T07:29:36.872Z,21.10
2022-12-25T07:32:03.841Z,21.10
2022-12-25T07:34:31.194Z,21.20
2022-12-25T07:36:57.946Z,21.20
2022-12-25T07:39:24.726Z,21.20
2022-12-25T07:41:51.676Z,21.20
2022-12-25T07:44:19.148Z,21.20
2022-12-25T07:46:46.449Z,21.20
2022-12-25T07:49:14.158Z,21.20
2022-12-25T07:51:40.941Z,21.10
2022-12-25T07:54:09.951Z,21.10
2022-12-25T07:56:36.745Z,21.10
2022-12-25T07:59:03.613Z,21.10
2022-12-25T08:01:31.003Z,21.00
2022-12-25T08:04:00.930Z,21.00
2022-12-25T08:06:34.799Z,21.00
2022-12-25T08:09:08.495Z,20.90
2022-12-25T08:11:35.961Z,20.90
2022-12-25T08:14:06.791Z,20.90
2022-12-25T08:16:34.429Z,20.90
2022-12-25T08:19:02.164Z,20.90
2022-12-25T08:21:28.917Z,20.90
2022-12-25T08:23:56.210Z,20.90
2022-12-25T08:26:23.929Z,20.90
2022-12-25T08:28:51.704Z,20.90
2022-12-25T08:31:23.285Z,20.90
2022-12-25T08:33:53.396Z,20.90
2022-12-25T08:36:21.543Z,20.80
2022-12-25T08:38:49.062Z,20.80
2022-12-25T08:41:16.831Z,20.90
2022-12-25T08:43:43.715Z,20.80
2022-12-25T08:46:13.174Z,20.80
2022-12-25T08:48:44.007Z,20.80
2022-12-25T08:51:14.686Z,20.80
2022-12-25T08:53:45.666Z,20.80
2022-12-25T08:56:13.237Z,20.80
2022-12-25T08:58:40.301Z,20.80
2022-12-25T09:01:07.831Z,20.80
2022-12-25T09:03:35.452Z,20.80
2022-12-25T09:06:13.840Z,20.80
2022-12-25T09:08:47.764Z,20.80
2022-12-25T09:11:16.335Z,20.80
2022-12-25T09:13:43.170Z,20.90
2022-12-25T09:16:13.656Z,20.80
2022-12-25T09:18:40.515Z,20.80
2022-12-25T09:21:11.899Z,20.80
2022-12-25T09:23:39.073Z,20.80
2022-12-25T09:26:08.727Z,20.90
2022-12-25T09:28:35.595Z,20.90
2022-12-25T09:31:02.953Z,20.90
2022-12-25T09:33:29.765Z,20.90
2022-12-25T09:36:05.239Z,20.90
2022-12-25T09:38:33.286Z,20.90
2022-12-25T09:41:02.914Z,20.90
2022-12-25T09:43:33.431Z,20.90
2022-12-25T09:46:02.711Z,20.90
2022-12-25T09:48:33.573Z,20.90
2022-12-25T09:51:08.028Z,20.90
2022-12-25T09:53:43.863Z,20.90
2022-12-25T09:56:25.580Z,21.00
2022-12-25T09:58:53.333Z,21.00
2022-12-25T10:01:49.754Z,21.00
2022-12-25T10:04:52.379Z,21.00
2022-12-25T10:07:50.508Z,21.00
2022-12-25T10:10:51.499Z,21.00
2022-12-25T10:13:47.670Z,21.00
2022-12-25T10:16:47.833Z,21.10
2022-12-25T10:19:23.976Z,21.10
2022-12-25T10:21:54.842Z,21.10
2022-12-25T10:24:50.486Z,21.10
2022-12-25T10:27:32.199Z,21.10
2022-12-25T10:30:00.485Z,21.10
2022-12-25T10:32:27.779Z,21.00
2022-12-25T10:34:55.119Z,21.00
2022-12-25T10:37:21.931Z,21.00
2022-12-25T10:39:49.245Z,20.90
2022-12-25T10:42:28.270Z,20.90
2022-12-25T10:45:07.983Z,20.90
2022-12-25T10:47:38.242Z,20.90
2022-12-25T10:50:26.354Z,20.90
2022-12-25T10:52:56.874Z,21.00
2022-12-25T10:55:28.789Z,21.00
2022-12-25T10:57:57.964Z,21.00
2022-12-25T11:00:31.125Z,21.00
2022-12-25T11:02:59.187Z,21.00
2022-12-25T11:05:35.034Z,21.00
2022-12-25T11:08:03.214Z,21.00
2022-12-25T11:10:37.180Z,21.00
2022-12-25T11:13:07.747Z,21.00
2022-12-25T11:15:44.011Z,21.00
2022-12-25T11:18:19.806Z,21.00
2022-12-25T11:20:55.197Z,21.10
2022-12-25T11:23:25.214Z,21.10
2022-12-25T11:26:04.439Z,21.10
2022-12-25T11:28:33.713Z,21.10
2022-12-25T11:31:13.939Z,21.10
2022-12-25T11:33:50.069Z,21.10
2022-12-25T11:36:53.128Z,21.10
2022-12-25T11:39:36.285Z,21.10
2022-12-25T11:42:12.154Z,21.10
2022-12-25T11:44:53.385Z,21.20
2022-12-25T11:47:31.559Z,21.20
2022-12-25T11:50:04.970Z,21.20
2022-12-25T11:52:38.359Z,21.20
2022-12-25T11:55:22.274Z,21.20
2022-12-25T11:57:55.155Z,21.10
2022-12-25T12:00:22.372Z,21.10
2022-12-25T12:03:22.234Z,21.10
2022-12-25T12:05:53.652Z,21.10
2022-12-25T12:08:20.439Z,21.10
2022-12-25T12:11:19.136Z,21.10
2022-12-25T12:14:10.998Z,21.10
2022-12-25T12:16:37.924Z,21.20
2022-12-25T12:19:31.773Z,21.20
2022-12-25T12:22:03.873Z,21.20
2022-12-25T12:25:01.491Z,21.20
2022-12-25T12:27:39.111Z,21.20
2022-12-25T12:30:07.648Z,21.20
2022-12-25T12:32:36.887Z,21.20
2022-12-25T12:35:30.999Z,21.30
2022-12-25T12:38:02.476Z,21.30
2022-12-25T12:40:37.442Z,21.30
2022-12-25T12:43:05.712Z,21.30
2022-12-25T12:45:37.517Z,21.30
2022-12-25T12:48:22.813Z,21.30
2022-12-25T12:50:49.620Z,21.30
2022-12-25T12:53:22.181Z,21.30
2022-12-25T12:55:52.330Z,21.30
2022-12-25T12:58:36.375Z,21.30
2022-12-25T13:01:06.370Z,21.40
2022-12-25T13:03:52.057Z,21.30
2022-12-25T13:06:48.058Z,21.40
2022-12-25T13:09:56.818Z,21.40
2022-12-25T13:12:24.943Z,21.40
2022-12-25T13:14:52.173Z,21.40
2022-12-25T13:17:22.932Z,21.40
2022-12-25T13:19:56.275Z,21.40
2022-12-25T13:22:32.903Z,21.40
2022-12-25T13:25:02.139Z,21.40
2022-12-25T13:27:34.375Z,21.40
2022-12-25T13:30:18.956Z,21.50
2022-12-25T13:32:46.221Z,21.40
2022-12-25T13:35:15.346Z,21.40
2022-12-25T13:37:43.152Z,21.50
2022-12-25T13:40:27.500Z,21.50
2022-12-25T13:43:01.891Z,21.50
2022-12-25T13:45:30.935Z,21.50
2022-12-25T13:48:09.133Z,21.50
2022-12-25T13:50:37.229Z,21.50
2022-12-25T13:53:12.640Z,21.50
2022-12-25T13:55:40.041Z,21.50
2022-12-25T13:58:14.749Z,21.60
2022-12-25T14:00:48.856Z,21.50
2022-12-25T14:03:24.912Z,21.60
2022-12-25T14:06:22.656Z,21.50
2022-12-25T14:08:49.819Z,21.60
2022-12-25T14:11:20.759Z,21.60
2022-12-25T14:13:50.059Z,21.60
2022-12-25T14:16:18.220Z,21.60
2022-12-25T14:19:01.493Z,21.60
2022-12-25T14:21:35.949Z,21.60
2022-12-25T14:24:03.291Z,21.60
2022-12-25T14:26:32.844Z,21.60
2022-12-25T14:29:05.779Z,21.60
2022-12-25T14:31:33.691Z,21.60
2022-12-25T14:34:02.098Z,21.60
2022-12-25T14:36:30.979Z,21.70
2022-12-25T14:39:03.875Z,21.60
2022-12-25T14:41:38.877Z,21.60
2022-12-25T14:44:25.635Z,21.70
2022-12-25T14:47:19.304Z,21.70
2022-12-25T14:49:47.073Z,21.60
2022-12-25T14:52:21.633Z,21.70
2022-12-25T14:54:52.804Z,21.60
2022-12-25T14:57:37.325Z,21.70
2022-12-25T15:00:09.467Z,21.70
2022-12-25T15:02:44.553Z,21.70
2022-12-25T15:05:37.156Z,21.70
2022-12-25T15:08:03.948Z,21.70
2022-12-25T15:13:20.949Z,21.70
2022-12-25T15:15:58.937Z,21.70
2022-12-25T15:18:27.516Z,21.70
2022-12-25T15:20:56.247Z,21.70
2022-12-25T15:23:25.270Z,21.70
2022-12-25T15:25:52.406Z,21.70
2022-12-25T15:28:20.153Z,21.70
2022-12-25T15:30:47.314Z,21.70
2022-12-25T15:33:15.942Z,21.70
2022-12-25T15:35:45.548Z,21.70
2022-12-25T15:38:13.042Z,21.80
2022-12-25T15:40:40.351Z,21.80
2022-12-25T15:43:38.944Z,21.80
2022-12-25T15:45:58.477Z,21.80
2022-12-25T15:48:25.264Z,21.80
2022-12-25T15:51:17.277Z,21.70
2022-12-25T15:53:44.041Z,21.70
2022-12-25T15:56:12.110Z,21.80
2022-12-25T15:58:38.937Z,21.80
2022-12-25T16:01:05.826Z,21.80
2022-12-25T16:03:32.670Z,21.80
2022-12-25T16:05:59.475Z,21.80
2022-12-25T16:08:26.250Z,21.80
2022-12-25T16:10:55.021Z,21.80
2022-12-25T16:13:22.395Z,21.80
2022-12-25T16:15:49.316Z,21.80
2022-12-25T16:18:16.086Z,21.80
2022-12-25T16:20:43.444Z,21.80
2022-12-25T16:23:10.266Z,21.80
2022-12-25T16:25:37.112Z,21.80
2022-12-25T16:28:06.183Z,21.80
2022-12-25T16:30:34.759Z,21.80
2022-12-25T16:33:03.911Z,21.80
2022-12-25T16:35:30.914Z,21.80
2022-12-25T16:37:57.855Z,21.80
2022-12-25T16:40:24.717Z,21.80
2022-12-25T16:42:51.497Z,21.80
2022-12-25T16:45:18.805Z,21.80
2022-12-25T16:47:46.026Z,21.80
2022-12-25T16:50:13.324Z,21.80
2022-12-25T16:52:40.115Z,21.80
2022-12-25T16:55:07.128Z,21.80
2022-12-25T16:57:34.435Z,21.80
2022-12-25T17:00:01.795Z,21.80
2022-12-25T17:02:29.339Z,21.90
2022-12-25T17:04:56.297Z,21.80
2022-12-25T17:07:23.089Z,21.90
2022-12-25T17:09:50.729Z,21.80
2022-12-25T17:12:17.809Z,21.80
2022-12-25T17:14:50.281Z,21.80
2022-12-25T17:17:17.111Z,21.80
2022-12-25T17:19:46.987Z,21.90
2022-12-25T17:22:13.836Z,21.80
2022-12-25T17:24:41.585Z,21.90
2022-12-25T17:27:10.889Z,21.90
2022-12-25T17:29:41.004Z,21.90
2022-12-25T17:32:08.700Z,21.90
2022-12-25T17:34:35.670Z,21.90
2022-12-25T17:37:02.629Z,21.90
2022-12-25T17:39:29.498Z,21.90
2022-12-25T17:41:58.556Z,21.90
2022-12-25T17:44:28.461Z,21.90
2022-12-25T17:47:01.408Z,21.90
2022-12-25T17:49:28.241Z,21.90
2022-12-25T17:51:55.069Z,21.90
2022-12-25T17:54:21.871Z,21.90
2022-12-25T17:56:49.440Z,21.90
2022-12-25T17:59:20.508Z,21.90
2022-12-25T18:01:48.184Z,21.90
2022-12-25T18:04:15.143Z,21.90
2022-12-25T18:06:42.425Z,21.90
2022-12-25T18:09:11.250Z,21.90
2022-12-25T18:11:41.152Z,21.90
2022-12-25T18:14:11.694Z,21.90
2022-12-25T18:16:41.170Z,21.90
2022-12-25T18:19:11.696Z,21.90
2022-12-25T18:21:39.566Z,21.90
2022-12-25T18:24:08.863Z,21.90
2022-12-25T18:26:36.297Z,21.90
2022-12-25T18:29:03.903Z,21.90
2022-12-25T18:31:31.372Z,21.90
2022-12-25T18:33:59.841Z,21.90
2022-12-25T18:36:29.114Z,21.90
2022-12-25T18:38:57.095Z,21.90
2022-12-25T18:41:23.980Z,21.90
2022-12-25T18:43:55.686Z,21.90
2022-12-25T18:46:27.751Z,21.90
2022-12-25T18:48:56.269Z,21.90
2022-12-25T18:51:29.952Z,21.90
2022-12-25T18:54:03.950Z,21.90
2022-12-25T18:56:30.746Z,21.90
2022-12-25T18:58:59.761Z,21.90
2022-12-25T19:01:26.636Z,21.90
2022-12-25T19:03:58.649Z,21.90
2022-12-25T19:06:33.381Z,21.90
2022-12-25T19:09:00.403Z,21.90
2022-12-25T19:11:27.199Z,21.80
2022-12-25T19:13:54.019Z,21.90
2022-12-25T19:16:26.538Z,21.90
2022-12-25T19:18:53.539Z,21.80
2022-12-25T19:21:20.288Z,21.80
2022-12-25T19:23:49.425Z,21.90
2022-12-25T19:26:16.221Z,21.90
2022-12-25T19:28:43.519Z,21.80
2022-12-25T19:31:11.206Z,21.80
2022-12-25T19:33:40.520Z,21.80
2022-12-25T19:36:10.975Z,21.80
2022-12-25T19:38:38.313Z,21.80
2022-12-25T19:41:16.879Z,21.80
2022-12-25T19:43:47.414Z,21.80
2022-12-25T19:46:33.380Z,21.80
2022-12-25T19:49:07.744Z,21.70
2022-12-25T19:51:39.084Z,21.70
2022-12-25T19:54:07.247Z,21.70
2022-12-25T19:56:34.842Z,21.70
2022-12-25T19:59:02.299Z,21.60
2022-12-25T20:01:30.699Z,21.60
2022-12-25T20:03:57.996Z,21.60
2022-12-25T20:06:31.530Z,21.60
2022-12-25T20:09:01.315Z,21.60
2022-12-25T20:11:30.239Z,21.60
2022-12-25T20:13:58.005Z,21.60
2022-12-25T20:16:26.323Z,21.60
2022-12-25T20:18:53.435Z,21.60
2022-12-25T20:21:22.069Z,21.60
2022-12-25T20:23:50.702Z,21.60
2022-12-25T20:26:19.903Z,21.60
2022-12-25T20:28:47.369Z,21.60
2022-12-25T20:31:20.037Z,21.60
2022-12-25T20:33:47.003Z,21.60
2022-12-25T20:36:14.069Z,21.60
2022-12-25T20:38:41.822Z,21.60
2022-12-25T20:41:29.453Z,21.50
2022-12-25T20:43:56.964Z,21.50
2022-12-25T20:46:25.940Z,21.40
2022-12-25T20:48:53.442Z,21.40
2022-12-25T20:51:23.400Z,21.30
2022-12-25T20:53:51.549Z,21.30
2022-12-25T20:56:19.242Z,21.30
2022-12-25T20:58:46.565Z,21.30
2022-12-25T21:01:16.698Z,21.20
2022-12-25T21:03:45.150Z,21.20
2022-12-25T21:06:12.695Z,21.20
2022-12-25T21:08:41.133Z,21.20
2022-12-25T21:11:09.936Z,21.20
2022-12-25T21:13:40.328Z,21.20
2022-12-25T21:16:13.901Z,21.20
2022-12-25T21:18:40.936Z,21.20
2022-12-25T21:21:11.641Z,21.20
2022-12-25T21:23:39.589Z,21.20
2022-12-25T21:26:23.602Z,21.20
2022-12-25T21:28:54.116Z,21.20
2022-12-25T21:31:21.751Z,21.20
2022-12-25T21:33:51.566Z,21.20
2022-12-25T21:36:30.014Z,21.30
2022-12-25T21:38:56.883Z,21.30
2022-12-25T21:41:24.968Z,21.30
2022-12-25T21:43:51.704Z,21.30
2022-12-25T21:46:19.233Z,21.20
2022-12-25T21:48:46.046Z,21.20
2022-12-25T21:51:43.345Z,21.20
2022-12-25T21:54:10.979Z,21.20
2022-12-25T21:56:44.533Z,21.20
2022-12-25T21:59:15.596Z,21.20
2022-12-25T22:01:43.282Z,21.20
2022-12-25T22:04:11.606Z,21.20
2022-12-25T22:06:56.730Z,21.20
2022-12-25T22:09:24.722Z,21.20
2022-12-25T22:12:10.111Z,21.20
2022-12-25T22:15:02.758Z,21.20
2022-12-25T22:17:52.627Z,21.20
2022-12-25T22:20:22.907Z,21.20
2022-12-25T22:22:51.312Z,21.20
2022-12-25T22:25:18.918Z,21.20
2022-12-25T22:27:46.700Z,21.20
2022-12-25T22:30:18.927Z,21.20
2022-12-25T22:32:46.450Z,21.30
2022-12-25T22:35:14.203Z,21.30
2022-12-25T22:37:42.448Z,21.30
2022-12-25T22:40:12.510Z,21.30
2022-12-25T22:42:39.466Z,21.30
2022-12-25T22:45:06.664Z,21.30
2022-12-25T22:47:33.580Z,21.30
2022-12-25T22:50:00.483Z,21.30
2022-12-25T22:52:27.410Z,21.30
2022-12-25T22:54:54.158Z,21.30
2022-12-25T22:57:20.948Z,21.30
2022-12-25T22:59:47.733Z,21.30
2022-12-25T23:02:14.747Z,21.30
2022-12-25T23:04:41.746Z,21.30
2022-12-25T23:07:09.378Z,21.30
2022-12-25T23:09:36.299Z,21.30
2022-12-25T23:12:03.306Z,21.30
2022-12-25T23:14:38.915Z,21.30
2022-12-25T23:17:30.231Z,21.30
2022-12-25T23:20:17.051Z,21.30
2022-12-25T23:23:03.052Z,21.30
2022-12-25T23:25:48.954Z,21.40
2022-12-25T23:28:35.819Z,21.40
2022-12-25T23:31:02.655Z,21.30
2022-12-25T23:33:29.576Z,21.30
2022-12-25T23:35:56.899Z,21.30
2022-12-25T23:38:23.663Z,21.30
2022-12-25T23:40:51.289Z,21.30
2022-12-25T23:43:18.063Z,21.40
2022-12-25T23:45:44.836Z,21.30
2022-12-25T23:48:12.084Z,21.40
2022-12-25T23:50:38.836Z,21.40
2022-12-25T23:53:05.506Z,21.40
2022-12-25T23:55:33.717Z,21.40
2022-12-25T23:58:00.473Z,21.40
